sensor_id;sensor_type;location;lat;lon;timestamp;P1;durP1;ratioP1;P2;durP2;ratioP2
65535;SDS011;52145;49.342;9.116;2023-04-06T00:01:07;11.60;;;6.72;;
65535;SDS011;52145;49.342;9.116;2023-04-06T00:03:34;10.80;;;6.90;;
65535;SDS011;52145;49.342;9.116;2023-04-06T00:05:59;10.85;;;6.55;;
65535;SDS011;52145;49.342;9.116;2023-04-06T00:08:26;10.90;;;6.88;;
65535;SDS011;52145;49.342;9.116;2023-04-06T00:10:51;10.88;;;7.13;;
65535;SDS011;52145;49.342;9.116;2023-04-06T00:13:17;12.30;;;6.22;;
65535;SDS011;52145;49.342;9.116;2023-04-06T00:15:43;12.07;;;6.47;;
65535;SDS011;52145;49.342;9.116;2023-04-06T00:18:08;11.90;;;7.10;;
65535;SDS011;52145;49.342;9.116;2023-04-06T00:20:34;13.73;;;6.78;;
65535;SDS011;52145;49.342;9.116;2023-04-06T00:22:59;11.82;;;7.47;;
65535;SDS011;52145;49.342;9.116;2023-04-06T00:25:25;14.25;;;6.75;;
65535;SDS011;52145;49.342;9.116;2023-04-06T00:27:51;12.80;;;7.22;;
65535;SDS011;52145;49.342;9.116;2023-04-06T00:30:17;11.05;;;6.85;;
65535;SDS011;52145;49.342;9.116;2023-04-06T00:32:42;14.23;;;7.28;;
65535;SDS011;52145;49.342;9.116;2023-04-06T00:35:08;13.63;;;7.80;;
65535;SDS011;52145;49.342;9.116;2023-04-06T00:37:34;11.38;;;7.00;;
65535;SDS011;52145;49.342;9.116;2023-04-06T00:40:00;13.65;;;6.88;;
65535;SDS011;52145;49.342;9.116;2023-04-06T00:42:25;12.77;;;7.05;;
65535;SDS011;52145;49.342;9.116;2023-04-06T00:44:54;11.27;;;7.53;;
65535;SDS011;52145;49.342;9.116;2023-04-06T00:47:22;10.13;;;7.00;;
65535;SDS011;52145;49.342;9.116;2023-04-06T00:49:50;13.38;;;7.78;;
65535;SDS011;52145;49.342;9.116;2023-04-06T00:52:16;12.80;;;7.35;;
65535;SDS011;52145;49.342;9.116;2023-04-06T00:54:42;14.05;;;8.30;;
65535;SDS011;52145;49.342;9.116;2023-04-06T00:57:08;11.98;;;6.80;;
65535;SDS011;52145;49.342;9.116;2023-04-06T00:59:34;11.20;;;7.47;;
65535;SDS011;52145;49.342;9.116;2023-04-06T01:02:00;15.85;;;7.47;;
65535;SDS011;52145;49.342;9.116;2023-04-06T01:04:26;12.85;;;8.60;;
65535;SDS011;52145;49.342;9.116;2023-04-06T01:06:52;13.52;;;7.53;;
65535;SDS011;52145;49.342;9.116;2023-04-06T01:09:18;15.25;;;8.65;;
65535;SDS011;52145;49.342;9.116;2023-04-06T01:11:43;11.30;;;6.75;;
65535;SDS011;52145;49.342;9.116;2023-04-06T01:14:09;11.18;;;7.10;;
65535;SDS011;52145;49.342;9.116;2023-04-06T01:16:35;12.25;;;7.40;;
65535;SDS011;52145;49.342;9.116;2023-04-06T01:19:06;12.65;;;7.47;;
65535;SDS011;52145;49.342;9.116;2023-04-06T01:21:34;11.00;;;7.28;;
65535;SDS011;52145;49.342;9.116;2023-04-06T01:24:00;14.60;;;7.00;;
65535;SDS011;52145;49.342;9.116;2023-04-06T01:26:26;12.00;;;7.85;;
65535;SDS011;52145;49.342;9.116;2023-04-06T01:28:52;12.70;;;7.82;;
65535;SDS011;52145;49.342;9.116;2023-04-06T01:31:18;14.43;;;7.57;;
65535;SDS011;52145;49.342;9.116;2023-04-06T01:33:43;12.52;;;8.48;;
65535;SDS011;52145;49.342;9.116;2023-04-06T01:36:10;10.18;;;6.50;;
65535;SDS011;52145;49.342;9.116;2023-04-06T01:38:35;12.18;;;7.57;;
65535;SDS011;52145;49.342;9.116;2023-04-06T01:41:01;12.30;;;7.30;;
65535;SDS011;52145;49.342;9.116;2023-04-06T01:43:27;13.05;;;7.40;;
65535;SDS011;52145;49.342;9.116;2023-04-06T01:45:52;12.48;;;7.80;;
65535;SDS011;52145;49.342;9.116;2023-04-06T01:48:18;13.27;;;7.20;;
65535;SDS011;52145;49.342;9.116;2023-04-06T01:50:44;12.30;;;7.38;;
65535;SDS011;52145;49.342;9.116;2023-04-06T01:53:09;12.52;;;7.53;;
65535;SDS011;52145;49.342;9.116;2023-04-06T01:55:35;12.95;;;7.65;;
65535;SDS011;52145;49.342;9.116;2023-04-06T01:58:00;11.82;;;7.30;;
65535;SDS011;52145;49.342;9.116;2023-04-06T02:00:26;13.05;;;6.90;;
65535;SDS011;52145;49.342;9.116;2023-04-06T02:02:52;10.98;;;6.68;;
65535;SDS011;52145;49.342;9.116;2023-04-06T02:05:17;11.13;;;7.00;;
65535;SDS011;52145;49.342;9.116;2023-04-06T02:07:44;13.38;;;7.50;;
65535;SDS011;52145;49.342;9.116;2023-04-06T02:10:13;12.65;;;7.53;;
65535;SDS011;52145;49.342;9.116;2023-04-06T02:12:39;10.80;;;7.18;;
65535;SDS011;52145;49.342;9.116;2023-04-06T02:15:05;12.05;;;7.28;;
65535;SDS011;52145;49.342;9.116;2023-04-06T02:17:31;13.55;;;7.40;;
65535;SDS011;52145;49.342;9.116;2023-04-06T02:19:56;14.40;;;7.45;;
65535;SDS011;52145;49.342;9.116;2023-04-06T02:22:22;13.98;;;7.45;;
65535;SDS011;52145;49.342;9.116;2023-04-06T02:24:47;12.85;;;7.65;;
65535;SDS011;52145;49.342;9.116;2023-04-06T02:27:13;14.20;;;8.65;;
65535;SDS011;52145;49.342;9.116;2023-04-06T02:29:40;12.25;;;7.80;;
65535;SDS011;52145;49.342;9.116;2023-04-06T02:32:05;11.23;;;7.28;;
65535;SDS011;52145;49.342;9.116;2023-04-06T02:34:31;10.82;;;6.50;;
65535;SDS011;52145;49.342;9.116;2023-04-06T02:36:57;12.05;;;7.50;;
65535;SDS011;52145;49.342;9.116;2023-04-06T02:39:22;12.93;;;7.47;;
65535;SDS011;52145;49.342;9.116;2023-04-06T02:41:48;12.68;;;7.65;;
65535;SDS011;52145;49.342;9.116;2023-04-06T02:44:14;10.10;;;6.97;;
65535;SDS011;52145;49.342;9.116;2023-04-06T02:46:40;12.68;;;7.40;;
65535;SDS011;52145;49.342;9.116;2023-04-06T02:49:05;11.82;;;7.30;;
65535;SDS011;52145;49.342;9.116;2023-04-06T02:51:31;11.30;;;7.63;;
65535;SDS011;52145;49.342;9.116;2023-04-06T02:53:57;12.90;;;6.32;;
65535;SDS011;52145;49.342;9.116;2023-04-06T02:56:23;13.10;;;8.50;;
65535;SDS011;52145;49.342;9.116;2023-04-06T02:58:49;13.30;;;8.55;;
65535;SDS011;52145;49.342;9.116;2023-04-06T03:01:15;11.77;;;7.68;;
65535;SDS011;52145;49.342;9.116;2023-04-06T03:03:41;14.32;;;8.10;;
65535;SDS011;52145;49.342;9.116;2023-04-06T03:06:07;13.63;;;8.63;;
65535;SDS011;52145;49.342;9.116;2023-04-06T03:08:32;11.45;;;7.13;;
65535;SDS011;52145;49.342;9.116;2023-04-06T03:10:58;16.60;;;8.63;;
65535;SDS011;52145;49.342;9.116;2023-04-06T03:13:23;10.05;;;6.63;;
65535;SDS011;52145;49.342;9.116;2023-04-06T03:15:49;10.88;;;6.28;;
65535;SDS011;52145;49.342;9.116;2023-04-06T03:18:14;14.63;;;7.00;;
65535;SDS011;52145;49.342;9.116;2023-04-06T03:20:40;11.98;;;7.03;;
65535;SDS011;52145;49.342;9.116;2023-04-06T03:23:06;11.70;;;7.38;;
65535;SDS011;52145;49.342;9.116;2023-04-06T03:25:32;11.60;;;7.15;;
65535;SDS011;52145;49.342;9.116;2023-04-06T03:27:57;12.07;;;7.32;;
65535;SDS011;52145;49.342;9.116;2023-04-06T03:30:23;11.98;;;7.32;;
65535;SDS011;52145;49.342;9.116;2023-04-06T03:32:48;15.18;;;7.53;;
65535;SDS011;52145;49.342;9.116;2023-04-06T03:35:14;11.73;;;7.45;;
65535;SDS011;52145;49.342;9.116;2023-04-06T03:37:40;12.05;;;7.93;;
65535;SDS011;52145;49.342;9.116;2023-04-06T03:40:05;12.20;;;7.57;;
65535;SDS011;52145;49.342;9.116;2023-04-06T03:42:31;12.88;;;7.78;;
65535;SDS011;52145;49.342;9.116;2023-04-06T03:44:57;14.85;;;8.75;;
65535;SDS011;52145;49.342;9.116;2023-04-06T03:47:23;13.68;;;8.57;;
65535;SDS011;52145;49.342;9.116;2023-04-06T03:49:49;12.27;;;8.38;;
65535;SDS011;52145;49.342;9.116;2023-04-06T03:52:15;15.73;;;7.68;;
65535;SDS011;52145;49.342;9.116;2023-04-06T03:54:40;14.35;;;7.47;;
65535;SDS011;52145;49.342;9.116;2023-04-06T03:57:06;12.95;;;7.95;;
65535;SDS011;52145;49.342;9.116;2023-04-06T03:59:31;11.57;;;7.68;;
65535;SDS011;52145;49.342;9.116;2023-04-06T04:01:57;13.25;;;7.90;;
65535;SDS011;52145;49.342;9.116;2023-04-06T04:04:23;16.50;;;8.20;;
65535;SDS011;52145;49.342;9.116;2023-04-06T04:06:48;12.85;;;8.40;;
65535;SDS011;52145;49.342;9.116;2023-04-06T04:09:14;13.85;;;8.70;;
65535;SDS011;52145;49.342;9.116;2023-04-06T04:11:40;19.02;;;8.40;;
65535;SDS011;52145;49.342;9.116;2023-04-06T04:14:05;11.82;;;7.63;;
65535;SDS011;52145;49.342;9.116;2023-04-06T04:16:31;12.55;;;8.05;;
65535;SDS011;52145;49.342;9.116;2023-04-06T04:18:56;19.17;;;8.65;;
65535;SDS011;52145;49.342;9.116;2023-04-06T04:21:23;12.88;;;7.95;;
65535;SDS011;52145;49.342;9.116;2023-04-06T04:23:50;12.43;;;8.32;;
65535;SDS011;52145;49.342;9.116;2023-04-06T04:26:17;13.18;;;7.68;;
65535;SDS011;52145;49.342;9.116;2023-04-06T04:28:43;14.55;;;8.05;;
65535;SDS011;52145;49.342;9.116;2023-04-06T04:31:08;14.10;;;8.65;;
65535;SDS011;52145;49.342;9.116;2023-04-06T04:33:34;13.23;;;8.27;;
65535;SDS011;52145;49.342;9.116;2023-04-06T04:36:00;13.13;;;7.47;;
65535;SDS011;52145;49.342;9.116;2023-04-06T04:38:25;13.93;;;8.77;;
65535;SDS011;52145;49.342;9.116;2023-04-06T04:40:51;13.38;;;8.27;;
65535;SDS011;52145;49.342;9.116;2023-04-06T04:43:16;12.82;;;8.43;;
65535;SDS011;52145;49.342;9.116;2023-04-06T04:45:42;13.48;;;8.13;;
65535;SDS011;52145;49.342;9.116;2023-04-06T04:48:08;14.73;;;7.50;;
65535;SDS011;52145;49.342;9.116;2023-04-06T04:50:33;13.55;;;8.15;;
65535;SDS011;52145;49.342;9.116;2023-04-06T04:52:59;12.82;;;7.70;;
65535;SDS011;52145;49.342;9.116;2023-04-06T04:55:25;17.73;;;8.52;;
65535;SDS011;52145;49.342;9.116;2023-04-06T04:57:51;15.30;;;8.48;;
65535;SDS011;52145;49.342;9.116;2023-04-06T05:00:16;13.95;;;8.68;;
65535;SDS011;52145;49.342;9.116;2023-04-06T05:02:42;11.00;;;7.68;;
65535;SDS011;52145;49.342;9.116;2023-04-06T05:05:08;11.07;;;7.35;;
65535;SDS011;52145;49.342;9.116;2023-04-06T05:07:34;15.30;;;8.48;;
65535;SDS011;52145;49.342;9.116;2023-04-06T05:09:59;13.10;;;8.20;;
65535;SDS011;52145;49.342;9.116;2023-04-06T05:12:25;13.82;;;8.32;;
65535;SDS011;52145;49.342;9.116;2023-04-06T05:14:52;11.57;;;7.88;;
65535;SDS011;52145;49.342;9.116;2023-04-06T05:17:18;13.18;;;8.07;;
65535;SDS011;52145;49.342;9.116;2023-04-06T05:19:44;11.50;;;8.05;;
65535;SDS011;52145;49.342;9.116;2023-04-06T05:22:10;16.88;;;8.45;;
65535;SDS011;52145;49.342;9.116;2023-04-06T05:24:36;14.35;;;8.25;;
65535;SDS011;52145;49.342;9.116;2023-04-06T05:27:01;14.43;;;8.10;;
65535;SDS011;52145;49.342;9.116;2023-04-06T05:29:28;13.88;;;9.00;;
65535;SDS011;52145;49.342;9.116;2023-04-06T05:31:54;13.90;;;8.23;;
65535;SDS011;52145;49.342;9.116;2023-04-06T05:34:20;12.88;;;7.72;;
65535;SDS011;52145;49.342;9.116;2023-04-06T05:36:46;19.95;;;8.98;;
65535;SDS011;52145;49.342;9.116;2023-04-06T05:39:11;17.63;;;9.15;;
65535;SDS011;52145;49.342;9.116;2023-04-06T05:41:37;14.43;;;9.38;;
65535;SDS011;52145;49.342;9.116;2023-04-06T05:44:03;12.82;;;7.93;;
65535;SDS011;52145;49.342;9.116;2023-04-06T05:46:28;14.52;;;8.75;;
65535;SDS011;52145;49.342;9.116;2023-04-06T05:48:54;13.80;;;7.53;;
65535;SDS011;52145;49.342;9.116;2023-04-06T05:51:20;15.45;;;9.18;;
65535;SDS011;52145;49.342;9.116;2023-04-06T05:53:45;13.73;;;9.02;;
65535;SDS011;52145;49.342;9.116;2023-04-06T05:56:11;15.60;;;9.52;;
65535;SDS011;52145;49.342;9.116;2023-04-06T05:58:37;14.15;;;8.70;;
65535;SDS011;52145;49.342;9.116;2023-04-06T06:01:03;13.60;;;8.18;;
65535;SDS011;52145;49.342;9.116;2023-04-06T06:03:29;18.23;;;9.05;;
65535;SDS011;52145;49.342;9.116;2023-04-06T06:06:02;17.88;;;8.18;;
65535;SDS011;52145;49.342;9.116;2023-04-06T06:08:28;16.35;;;9.88;;
65535;SDS011;52145;49.342;9.116;2023-04-06T06:10:55;11.98;;;7.95;;
65535;SDS011;52145;49.342;9.116;2023-04-06T06:13:21;13.65;;;8.98;;
65535;SDS011;52145;49.342;9.116;2023-04-06T06:15:47;15.85;;;8.70;;
65535;SDS011;52145;49.342;9.116;2023-04-06T06:18:13;14.68;;;9.45;;
65535;SDS011;52145;49.342;9.116;2023-04-06T06:20:39;16.13;;;8.68;;
65535;SDS011;52145;49.342;9.116;2023-04-06T06:23:04;16.55;;;9.43;;
65535;SDS011;52145;49.342;9.116;2023-04-06T06:25:30;12.57;;;8.43;;
65535;SDS011;52145;49.342;9.116;2023-04-06T06:27:56;15.38;;;8.77;;
65535;SDS011;52145;49.342;9.116;2023-04-06T06:30:23;12.15;;;8.00;;
65535;SDS011;52145;49.342;9.116;2023-04-06T06:32:49;14.30;;;7.80;;
65535;SDS011;52145;49.342;9.116;2023-04-06T06:35:16;14.45;;;7.97;;
65535;SDS011;52145;49.342;9.116;2023-04-06T06:37:42;11.38;;;8.02;;
65535;SDS011;52145;49.342;9.116;2023-04-06T06:40:08;11.75;;;8.00;;
65535;SDS011;52145;49.342;9.116;2023-04-06T06:42:37;17.48;;;9.38;;
65535;SDS011;52145;49.342;9.116;2023-04-06T06:45:03;13.98;;;7.63;;
65535;SDS011;52145;49.342;9.116;2023-04-06T06:47:30;16.38;;;8.13;;
65535;SDS011;52145;49.342;9.116;2023-04-06T06:49:55;11.80;;;7.65;;
65535;SDS011;52145;49.342;9.116;2023-04-06T06:52:21;15.38;;;7.90;;
65535;SDS011;52145;49.342;9.116;2023-04-06T06:54:48;13.32;;;7.95;;
65535;SDS011;52145;49.342;9.116;2023-04-06T06:57:14;12.95;;;8.27;;
65535;SDS011;52145;49.342;9.116;2023-04-06T06:59:40;18.10;;;8.40;;
65535;SDS011;52145;49.342;9.116;2023-04-06T07:02:05;16.40;;;8.15;;
65535;SDS011;52145;49.342;9.116;2023-04-06T07:04:31;13.98;;;8.13;;
65535;SDS011;52145;49.342;9.116;2023-04-06T07:06:57;12.93;;;7.70;;
65535;SDS011;52145;49.342;9.116;2023-04-06T07:09:23;16.67;;;8.73;;
65535;SDS011;52145;49.342;9.116;2023-04-06T07:11:48;15.77;;;8.73;;
65535;SDS011;52145;49.342;9.116;2023-04-06T07:14:15;12.90;;;8.13;;
65535;SDS011;52145;49.342;9.116;2023-04-06T07:16:41;13.95;;;8.48;;
65535;SDS011;52145;49.342;9.116;2023-04-06T07:19:06;13.10;;;7.68;;
65535;SDS011;52145;49.342;9.116;2023-04-06T07:21:34;13.85;;;8.02;;
65535;SDS011;52145;49.342;9.116;2023-04-06T07:24:00;18.23;;;7.82;;
65535;SDS011;52145;49.342;9.116;2023-04-06T07:26:26;13.07;;;7.82;;
65535;SDS011;52145;49.342;9.116;2023-04-06T07:28:52;13.38;;;8.25;;
65535;SDS011;52145;49.342;9.116;2023-04-06T07:31:18;15.00;;;8.60;;
65535;SDS011;52145;49.342;9.116;2023-04-06T07:33:44;13.05;;;8.27;;
65535;SDS011;52145;49.342;9.116;2023-04-06T07:36:09;10.35;;;7.72;;
65535;SDS011;52145;49.342;9.116;2023-04-06T07:38:35;14.07;;;9.07;;
65535;SDS011;52145;49.342;9.116;2023-04-06T07:41:04;13.13;;;7.75;;
65535;SDS011;52145;49.342;9.116;2023-04-06T07:43:30;11.25;;;7.32;;
65535;SDS011;52145;49.342;9.116;2023-04-06T07:45:55;14.93;;;8.30;;
65535;SDS011;52145;49.342;9.116;2023-04-06T07:48:22;13.43;;;7.93;;
65535;SDS011;52145;49.342;9.116;2023-04-06T07:50:48;12.02;;;8.05;;
65535;SDS011;52145;49.342;9.116;2023-04-06T07:53:14;12.98;;;8.27;;
65535;SDS011;52145;49.342;9.116;2023-04-06T07:55:39;12.25;;;7.40;;
65535;SDS011;52145;49.342;9.116;2023-04-06T07:58:05;13.00;;;8.23;;
65535;SDS011;52145;49.342;9.116;2023-04-06T08:00:31;13.93;;;8.95;;
65535;SDS011;52145;49.342;9.116;2023-04-06T08:02:58;15.00;;;8.20;;
65535;SDS011;52145;49.342;9.116;2023-04-06T08:05:24;13.85;;;8.80;;
65535;SDS011;52145;49.342;9.116;2023-04-06T08:07:49;11.90;;;8.00;;
65535;SDS011;52145;49.342;9.116;2023-04-06T08:10:15;15.73;;;9.13;;
65535;SDS011;52145;49.342;9.116;2023-04-06T08:12:41;12.25;;;7.88;;
65535;SDS011;52145;49.342;9.116;2023-04-06T08:15:06;13.00;;;8.88;;
65535;SDS011;52145;49.342;9.116;2023-04-06T08:17:32;12.80;;;7.70;;
65535;SDS011;52145;49.342;9.116;2023-04-06T08:19:59;12.63;;;8.13;;
65535;SDS011;52145;49.342;9.116;2023-04-06T08:22:25;13.57;;;7.90;;
65535;SDS011;52145;49.342;9.116;2023-04-06T08:24:50;14.23;;;8.90;;
65535;SDS011;52145;49.342;9.116;2023-04-06T08:27:16;16.20;;;8.93;;
65535;SDS011;52145;49.342;9.116;2023-04-06T08:29:42;16.67;;;9.88;;
65535;SDS011;52145;49.342;9.116;2023-04-06T08:32:08;12.70;;;8.13;;
65535;SDS011;52145;49.342;9.116;2023-04-06T08:34:34;12.30;;;8.40;;
65535;SDS011;52145;49.342;9.116;2023-04-06T08:37:00;14.63;;;9.05;;
65535;SDS011;52145;49.342;9.116;2023-04-06T08:39:26;13.70;;;8.40;;
65535;SDS011;52145;49.342;9.116;2023-04-06T08:41:52;15.05;;;7.43;;
65535;SDS011;52145;49.342;9.116;2023-04-06T08:44:22;14.10;;;8.05;;
65535;SDS011;52145;49.342;9.116;2023-04-06T08:46:47;13.13;;;8.40;;
65535;SDS011;52145;49.342;9.116;2023-04-06T08:49:13;13.52;;;8.00;;
65535;SDS011;52145;49.342;9.116;2023-04-06T08:51:40;11.10;;;7.07;;
65535;SDS011;52145;49.342;9.116;2023-04-06T08:54:07;11.95;;;7.80;;
65535;SDS011;52145;49.342;9.116;2023-04-06T08:56:33;14.77;;;7.85;;
65535;SDS011;52145;49.342;9.116;2023-04-06T08:59:02;12.98;;;7.65;;
65535;SDS011;52145;49.342;9.116;2023-04-06T09:01:28;14.77;;;7.65;;
65535;SDS011;52145;49.342;9.116;2023-04-06T09:03:56;12.23;;;8.10;;
65535;SDS011;52145;49.342;9.116;2023-04-06T09:06:25;12.93;;;7.75;;
65535;SDS011;52145;49.342;9.116;2023-04-06T09:08:52;13.70;;;7.50;;
65535;SDS011;52145;49.342;9.116;2023-04-06T09:11:17;10.95;;;7.68;;
65535;SDS011;52145;49.342;9.116;2023-04-06T09:13:50;12.00;;;7.28;;
65535;SDS011;52145;49.342;9.116;2023-04-06T09:16:17;11.82;;;7.95;;
65535;SDS011;52145;49.342;9.116;2023-04-06T09:18:43;12.75;;;7.45;;
65535;SDS011;52145;49.342;9.116;2023-04-06T09:21:09;12.90;;;7.35;;
65535;SDS011;52145;49.342;9.116;2023-04-06T09:23:35;13.60;;;7.80;;
65535;SDS011;52145;49.342;9.116;2023-04-06T09:28:56;11.70;;;8.00;;
65535;SDS011;52145;49.342;9.116;2023-04-06T09:31:23;13.57;;;7.68;;
65535;SDS011;52145;49.342;9.116;2023-04-06T09:33:49;13.57;;;7.97;;
65535;SDS011;52145;49.342;9.116;2023-04-06T09:36:15;14.18;;;7.97;;
65535;SDS011;52145;49.342;9.116;2023-04-06T09:38:54;10.75;;;7.20;;
65535;SDS011;52145;49.342;9.116;2023-04-06T09:41:25;13.82;;;7.90;;
65535;SDS011;52145;49.342;9.116;2023-04-06T09:43:52;13.77;;;7.25;;
65535;SDS011;52145;49.342;9.116;2023-04-06T09:46:31;14.55;;;7.50;;
65535;SDS011;52145;49.342;9.116;2023-04-06T09:48:59;12.45;;;7.45;;
65535;SDS011;52145;49.342;9.116;2023-04-06T09:51:31;11.70;;;7.10;;
65535;SDS011;52145;49.342;9.116;2023-04-06T09:54:18;13.35;;;7.45;;
65535;SDS011;52145;49.342;9.116;2023-04-06T09:56:47;10.10;;;7.18;;
65535;SDS011;52145;49.342;9.116;2023-04-06T10:02:18;14.68;;;7.55;;
65535;SDS011;52145;49.342;9.116;2023-04-06T10:04:56;14.27;;;7.28;;
65535;SDS011;52145;49.342;9.116;2023-04-06T10:07:27;14.68;;;7.43;;
65535;SDS011;52145;49.342;9.116;2023-04-06T10:09:54;10.77;;;7.28;;
65535;SDS011;52145;49.342;9.116;2023-04-06T10:12:21;13.85;;;7.50;;
65535;SDS011;52145;49.342;9.116;2023-04-06T10:14:46;13.48;;;6.85;;
65535;SDS011;52145;49.342;9.116;2023-04-06T10:17:14;11.90;;;7.22;;
65535;SDS011;52145;49.342;9.116;2023-04-06T10:20:23;11.85;;;6.75;;
65535;SDS011;52145;49.342;9.116;2023-04-06T10:22:45;10.85;;;6.97;;
65535;SDS011;52145;49.342;9.116;2023-04-06T10:25:32;9.73;;;6.75;;
65535;SDS011;52145;49.342;9.116;2023-04-06T10:28:05;12.00;;;7.20;;
65535;SDS011;52145;49.342;9.116;2023-04-06T10:30:32;10.93;;;7.18;;
65535;SDS011;52145;49.342;9.116;2023-04-06T10:32:59;12.32;;;7.75;;
65535;SDS011;52145;49.342;9.116;2023-04-06T10:35:36;12.80;;;7.00;;
65535;SDS011;52145;49.342;9.116;2023-04-06T10:38:05;9.77;;;7.00;;
65535;SDS011;52145;49.342;9.116;2023-04-06T10:40:31;12.45;;;7.63;;
65535;SDS011;52145;49.342;9.116;2023-04-06T10:43:06;11.18;;;7.47;;
65535;SDS011;52145;49.342;9.116;2023-04-06T10:45:33;12.27;;;7.50;;
65535;SDS011;52145;49.342;9.116;2023-04-06T10:48:00;10.55;;;6.88;;
65535;SDS011;52145;49.342;9.116;2023-04-06T10:50:37;10.00;;;7.15;;
65535;SDS011;52145;49.342;9.116;2023-04-06T10:53:03;12.20;;;7.57;;
65535;SDS011;52145;49.342;9.116;2023-04-06T10:55:29;13.75;;;7.75;;
65535;SDS011;52145;49.342;9.116;2023-04-06T10:57:55;9.65;;;6.47;;
65535;SDS011;52145;49.342;9.116;2023-04-06T11:00:21;11.40;;;8.05;;
65535;SDS011;52145;49.342;9.116;2023-04-06T11:02:48;12.48;;;7.15;;
65535;SDS011;52145;49.342;9.116;2023-04-06T11:05:14;11.77;;;7.75;;
65535;SDS011;52145;49.342;9.116;2023-04-06T11:07:40;9.70;;;7.45;;
65535;SDS011;52145;49.342;9.116;2023-04-06T11:10:06;9.98;;;6.68;;
65535;SDS011;52145;49.342;9.116;2023-04-06T11:12:33;11.13;;;7.65;;
65535;SDS011;52145;49.342;9.116;2023-04-06T11:14:59;9.30;;;6.68;;
65535;SDS011;52145;49.342;9.116;2023-04-06T11:17:33;9.38;;;6.88;;
65535;SDS011;52145;49.342;9.116;2023-04-06T11:19:59;10.13;;;6.97;;
65535;SDS011;52145;49.342;9.116;2023-04-06T11:22:25;11.13;;;7.25;;
65535;SDS011;52145;49.342;9.116;2023-04-06T11:24:51;10.88;;;6.93;;
65535;SDS011;52145;49.342;9.116;2023-04-06T11:27:17;10.50;;;6.55;;
65535;SDS011;52145;49.342;9.116;2023-04-06T11:29:44;11.82;;;7.60;;
65535;SDS011;52145;49.342;9.116;2023-04-06T11:32:21;10.05;;;6.70;;
65535;SDS011;52145;49.342;9.116;2023-04-06T11:34:47;10.35;;;6.75;;
65535;SDS011;52145;49.342;9.116;2023-04-06T11:37:13;10.40;;;7.07;;
65535;SDS011;52145;49.342;9.116;2023-04-06T11:39:40;12.00;;;7.28;;
65535;SDS011;52145;49.342;9.116;2023-04-06T11:42:27;13.35;;;7.20;;
65535;SDS011;52145;49.342;9.116;2023-04-06T11:44:54;11.38;;;7.15;;
65535;SDS011;52145;49.342;9.116;2023-04-06T11:47:27;10.27;;;6.00;;
65535;SDS011;52145;49.342;9.116;2023-04-06T11:50:06;9.48;;;6.75;;
65535;SDS011;52145;49.342;9.116;2023-04-06T11:52:33;11.48;;;7.00;;
65535;SDS011;52145;49.342;9.116;2023-04-06T11:54:58;9.75;;;6.13;;
65535;SDS011;52145;49.342;9.116;2023-04-06T11:57:42;9.68;;;6.25;;
65535;SDS011;52145;49.342;9.116;2023-04-06T12:00:09;9.40;;;7.03;;
65535;SDS011;52145;49.342;9.116;2023-04-06T12:02:36;11.50;;;6.88;;
65535;SDS011;52145;49.342;9.116;2023-04-06T12:05:02;12.77;;;7.88;;
65535;SDS011;52145;49.342;9.116;2023-04-06T12:07:30;11.50;;;7.10;;
65535;SDS011;52145;49.342;9.116;2023-04-06T12:09:56;10.32;;;7.20;;
65535;SDS011;52145;49.342;9.116;2023-04-06T12:12:21;10.63;;;6.28;;
65535;SDS011;52145;49.342;9.116;2023-04-06T12:14:47;8.23;;;6.60;;
65535;SDS011;52145;49.342;9.116;2023-04-06T12:17:12;9.82;;;5.97;;
65535;SDS011;52145;49.342;9.116;2023-04-06T12:19:38;10.43;;;7.38;;
65535;SDS011;52145;49.342;9.116;2023-04-06T12:22:04;10.70;;;6.53;;
65535;SDS011;52145;49.342;9.116;2023-04-06T12:24:30;10.27;;;6.18;;
65535;SDS011;52145;49.342;9.116;2023-04-06T12:26:55;9.10;;;5.85;;
65535;SDS011;52145;49.342;9.116;2023-04-06T12:29:22;9.52;;;6.93;;
65535;SDS011;52145;49.342;9.116;2023-04-06T12:31:51;10.52;;;7.28;;
65535;SDS011;52145;49.342;9.116;2023-04-06T12:34:20;8.57;;;6.65;;
65535;SDS011;52145;49.342;9.116;2023-04-06T12:36:46;8.50;;;6.20;;
65535;SDS011;52145;49.342;9.116;2023-04-06T12:39:12;11.40;;;6.30;;
65535;SDS011;52145;49.342;9.116;2023-04-06T12:41:38;8.25;;;6.18;;
65535;SDS011;52145;49.342;9.116;2023-04-06T12:44:06;8.93;;;6.55;;
65535;SDS011;52145;49.342;9.116;2023-04-06T12:46:31;10.18;;;7.13;;
65535;SDS011;52145;49.342;9.116;2023-04-06T12:48:57;9.98;;;6.53;;
65535;SDS011;52145;49.342;9.116;2023-04-06T12:51:24;9.43;;;7.03;;
65535;SDS011;52145;49.342;9.116;2023-04-06T12:53:53;10.05;;;6.75;;
65535;SDS011;52145;49.342;9.116;2023-04-06T12:56:18;9.50;;;6.60;;
65535;SDS011;52145;49.342;9.116;2023-04-06T12:58:46;10.90;;;7.47;;
65535;SDS011;52145;49.342;9.116;2023-04-06T13:01:12;10.13;;;6.43;;
65535;SDS011;52145;49.342;9.116;2023-04-06T13:03:38;10.10;;;6.38;;
65535;SDS011;52145;49.342;9.116;2023-04-06T13:06:07;8.27;;;5.88;;
65535;SDS011;52145;49.342;9.116;2023-04-06T13:08:34;8.98;;;6.40;;
65535;SDS011;52145;49.342;9.116;2023-04-06T13:11:01;8.95;;;5.93;;
65535;SDS011;52145;49.342;9.116;2023-04-06T13:13:27;7.47;;;5.43;;
65535;SDS011;52145;49.342;9.116;2023-04-06T13:15:58;9.13;;;6.20;;
65535;SDS011;52145;49.342;9.116;2023-04-06T13:18:31;10.30;;;5.80;;
65535;SDS011;52145;49.342;9.116;2023-04-06T13:20:57;7.32;;;5.68;;
65535;SDS011;52145;49.342;9.116;2023-04-06T13:23:24;13.05;;;6.35;;
65535;SDS011;52145;49.342;9.116;2023-04-06T13:26:00;10.07;;;6.57;;
65535;SDS011;52145;49.342;9.116;2023-04-06T13:28:28;13.30;;;6.28;;
65535;SDS011;52145;49.342;9.116;2023-04-06T13:30:55;10.93;;;6.75;;
65535;SDS011;52145;49.342;9.116;2023-04-06T13:33:22;12.05;;;6.90;;
65535;SDS011;52145;49.342;9.116;2023-04-06T13:35:48;9.45;;;6.82;;
65535;SDS011;52145;49.342;9.116;2023-04-06T13:38:15;10.88;;;7.18;;
65535;SDS011;52145;49.342;9.116;2023-04-06T13:40:41;9.93;;;6.28;;
65535;SDS011;52145;49.342;9.116;2023-04-06T13:43:07;10.38;;;6.32;;
65535;SDS011;52145;49.342;9.116;2023-04-06T13:45:33;9.40;;;6.43;;
65535;SDS011;52145;49.342;9.116;2023-04-06T13:47:59;10.05;;;6.82;;
65535;SDS011;52145;49.342;9.116;2023-04-06T13:50:28;10.02;;;6.50;;
65535;SDS011;52145;49.342;9.116;2023-04-06T13:52:53;8.65;;;5.88;;
65535;SDS011;52145;49.342;9.116;2023-04-06T13:55:21;8.07;;;6.10;;
65535;SDS011;52145;49.342;9.116;2023-04-06T13:57:46;9.23;;;6.95;;
65535;SDS011;52145;49.342;9.116;2023-04-06T14:00:12;11.93;;;6.82;;
65535;SDS011;52145;49.342;9.116;2023-04-06T14:02:39;12.05;;;6.55;;
65535;SDS011;52145;49.342;9.116;2023-04-06T14:05:05;11.85;;;7.07;;
65535;SDS011;52145;49.342;9.116;2023-04-06T14:07:31;12.88;;;6.32;;
65535;SDS011;52145;49.342;9.116;2023-04-06T14:09:56;10.38;;;6.95;;
65535;SDS011;52145;49.342;9.116;2023-04-06T14:12:22;10.55;;;6.35;;
65535;SDS011;52145;49.342;9.116;2023-04-06T14:14:47;9.82;;;5.85;;
65535;SDS011;52145;49.342;9.116;2023-04-06T14:17:13;10.55;;;6.80;;
65535;SDS011;52145;49.342;9.116;2023-04-06T14:19:39;8.55;;;6.03;;
65535;SDS011;52145;49.342;9.116;2023-04-06T14:22:04;9.15;;;6.30;;
65535;SDS011;52145;49.342;9.116;2023-04-06T14:24:30;9.75;;;6.50;;
65535;SDS011;52145;49.342;9.116;2023-04-06T14:26:56;11.60;;;6.88;;
65535;SDS011;52145;49.342;9.116;2023-04-06T14:29:22;9.40;;;6.60;;
65535;SDS011;52145;49.342;9.116;2023-04-06T14:31:48;11.35;;;7.13;;
65535;SDS011;52145;49.342;9.116;2023-04-06T14:34:14;9.43;;;6.97;;
65535;SDS011;52145;49.342;9.116;2023-04-06T14:36:41;9.43;;;6.57;;
65535;SDS011;52145;49.342;9.116;2023-04-06T14:39:07;10.70;;;6.43;;